YSU weather

Summerside Airport
Summerside, Prince Edward Island, Canada

Public forecast

Using degrees Celsius for public forecast. Weather courtesy of forecast.io.

METAR (pilot weather report)

Closest report is Charlottetown Airport, 30.9 nm (57.2 km) ESE. Retrieved 2019/04/26 10:00 UTC (37 minutes ago):

CYYG 261000Z CCA 34006KT 12SM BKN008 M00/M01 A3001 RMK SC7 SLP165

TAF (pilot weather forecast)

Closest forecast is Charlottetown Airport, 30.9 nm (57.2 km) ESE. Retrieved 2019/04/26 06:39 UTC (4 hours ago):

TAF CYYG 260538Z 2606/2618 32008KT 5SM -SN BR BKN004 OVC010 TEMPO 2606/2612 P6SM NSW SCT004 BKN010 FM261200 34010KT 6SM BR BKN006 TEMPO 2612/2614 P6SM NSW SCT006 FM261400 36005KT P6SM SCT030 TEMPO 2614/2618 BKN030 RMK NXT FCST BY 261200Z